PAYA Airport Information

Runway Information
Runway 02 Length 6475 ft width 150 ft
Elevation 18 ft Threshold 0 ft Heading 45
Runway 20 Length 6475 ft Width 150 ft
Elevation 30 ft Threshold 0 ft Heading 225
Runway 11 Length 7745 ft width 150 ft
Elevation 32 ft Threshold 0 ft Heading 135
Runway 29 Length 7745 ft Width 150 ft
Elevation 19 ft Threshold 0 ft Heading 315
Airport Frequencies
Airport Navaids
Type NDB Name Ocean Cape Frequency 385 KHZ
Type VOR-DME Name Yakutat Frequency 113300 KHZ
Airport Weather Information & NOTAM
ADDS - METARS form results

(0021 UTC 23 February 2020)
Data provider http://aviationweather.gov/metar/data/
 
METAR text: PAYA 230015Z AUTO 04004KT 10SM FEW006 SCT028 OVC060 M01/M02 A2980 RMK AO2 SNE06 P0000 T10061022 TSNO $
Conditions at: PAYA (YAKUTAT , AK, US) observed 0015 UTC 23 February 2020
Temperature: -0.6°C (31°F)
Dewpoint: -2.2°C (28°F) [RH = 89%]
Pressure (altimeter): 29.80 inches Hg (1009.2 mb)
Winds: from the NE (40 degrees) at 5 MPH (4 knots; 2.1 m/s)
Visibility: 10 or more miles (16+ km)
Ceiling: 6000 feet AGL
Clouds: few clouds at 600 feet AGL
scattered clouds at 2800 feet AGL
overcast cloud deck at 6000 feet AGL
Weather:
SOME DATA ABOVE MAY BE INACCURATE!!!
"$" is an indication the sensor requires maintenance

METAR text: PAYA 230008Z AUTO 02005KT 9SM BKN009 OVC060 M01/M03 A2980 RMK AO2 SNE06 P0000 T10061028 TSNO $
Conditions at: PAYA (YAKUTAT , AK, US) observed 0008 UTC 23 February 2020
Temperature: -0.6°C (31°F)
Dewpoint: -2.8°C (27°F) [RH = 85%]
Pressure (altimeter): 29.80 inches Hg (1009.2 mb)
Winds: from the NNE (20 degrees) at 6 MPH (5 knots; 2.6 m/s)
Visibility: 9 miles (14 km)
Ceiling: 900 feet AGL
Clouds: broken clouds at 900 feet AGL
overcast cloud deck at 6000 feet AGL
Weather:
SOME DATA ABOVE MAY BE INACCURATE!!!
"$" is an indication the sensor requires maintenance

METAR text: PAYA 222358Z AUTO 02005KT 3SM -SN BR BKN004 OVC070 M01/M02 A2980 RMK AO2 P0000 T10111022 TSNO $
Conditions at: PAYA (YAKUTAT , AK, US) observed 2358 UTC 22 February 2020
Temperature: -1.1°C (30°F)
Dewpoint: -2.2°C (28°F) [RH = 92%]
Pressure (altimeter): 29.80 inches Hg (1009.2 mb)
Winds: from the NNE (20 degrees) at 6 MPH (5 knots; 2.6 m/s)
Visibility: 3 miles ( 5 km)
Ceiling: 400 feet AGL
Clouds: broken clouds at 400 feet AGL
overcast cloud deck at 7000 feet AGL
Weather: -SN BR  (light snow, mist)
SOME DATA ABOVE MAY BE INACCURATE!!!
"$" is an indication the sensor requires maintenance

METAR text: PAYA 222356Z AUTO 03006KT 1 3/4SM -SN BR BKN004 OVC070 M01/M02 A2980 RMK AO2 P0000 T10111022 TSNO $
Conditions at: PAYA (YAKUTAT , AK, US) observed 2356 UTC 22 February 2020
Temperature: -1.1°C (30°F)
Dewpoint: -2.2°C (28°F) [RH = 92%]
Pressure (altimeter): 29.80 inches Hg (1009.2 mb)
Winds: from the NNE (30 degrees) at 7 MPH (6 knots; 3.1 m/s)
Visibility: 1.75 miles (2.82 km)
Ceiling: 400 feet AGL
Clouds: broken clouds at 400 feet AGL
overcast cloud deck at 7000 feet AGL
Weather: -SN BR  (light snow, mist)
SOME DATA ABOVE MAY BE INACCURATE!!!
"$" is an indication the sensor requires maintenance

METAR text: PAYA 222353Z AUTO 03006KT 1/2SM -SN FZFG BKN004 OVC070 M01/M02 A2980 RMK AO2 SLP091 P0014 60032 T10111017 11006 21017 51015 TSNO RVRNO $
Conditions at: PAYA (YAKUTAT , AK, US) observed 2353 UTC 22 February 2020
Temperature: -1.1°C (30°F)
Dewpoint: -1.7°C (29°F) [RH = 96%]
Pressure (altimeter): 29.80 inches Hg (1009.2 mb)
[Sea-level pressure: 1009.1 mb]
Winds: from the NNE (30 degrees) at 7 MPH (6 knots; 3.1 m/s)
Visibility: 0.50 miles (0.80 km)
Ceiling: 400 feet AGL
Clouds: broken clouds at 400 feet AGL
overcast cloud deck at 7000 feet AGL
Weather: -SN FZFG  (light snow, freezing fog)
SOME DATA ABOVE MAY BE INACCURATE!!!
"$" is an indication the sensor requires maintenance

METAR text: PAYA 222341Z AUTO 36004KT M1/4SM +SN FZFG VV004 M01/M02 A2980 RMK AO2 P0012 T10111017 TSNO RVRNO $
Conditions at: PAYA (YAKUTAT , AK, US) observed 2341 UTC 22 February 2020
Temperature: -1.1°C (30°F)
Dewpoint: -1.7°C (29°F) [RH = 96%]
Pressure (altimeter): 29.80 inches Hg (1009.2 mb)
Winds: from the N (360 degrees) at 5 MPH (4 knots; 2.1 m/s)
Visibility: 0.25 miles (0.40 km)
Ceiling: indefinite ceiling with vertical visibility of 400 feet AGL
Clouds: obscured sky
Weather: +SN FZFG  (heavy snow, freezing fog)
SOME DATA ABOVE MAY BE INACCURATE!!!
"$" is an indication the sensor requires maintenance

Forecast for: PAYA (YAKUTAT , AK, US)
Text: PAYA 222332Z 2300/2324 VRB03KT 6SM -SHSN BR FEW006 SCT025 OVC040
Forecast period: 0000 to 0600 UTC 23 February 2020
Forecast type: FROM: standard forecast or significant change
Winds: variable direction winds at 3 MPH (3 knots; 1.5 m/s)
Visibility: 6 miles (10 km)
Ceiling: 4000 feet AGL
Clouds: few clouds at 600 feet AGL
scattered clouds at 2500 feet AGL
overcast cloud deck at 4000 feet AGL
Weather: -SHSN BR  (light snow showers, mist)
Text: TEMPO 2300/2302 1/2SM -SHSN FG BKN006 BKN015 OVC025
Forecast period: 0000 to 0200 UTC 23 February 2020
Forecast type: TEMPORARY: The following changes expected for less than half the time period
Visibility: 0.50 miles (0.80 km)
Ceiling: 600 feet AGL
Clouds: broken clouds at 600 feet AGL
broken clouds at 1500 feet AGL
overcast cloud deck at 2500 feet AGL
Weather: -SHSN FG  (light snow showers, fog)
Text: FM230600 00000KT 3SM BR SCT003 BKN080
Forecast period: 0600 UTC 23 February 2020 to 0000 UTC 24 February 2020
Forecast type: FROM: standard forecast or significant change
Winds: calm
Visibility: 3 miles (5 km)
Ceiling: 8000 feet AGL
Clouds: scattered clouds at 300 feet AGL
broken clouds at 8000 feet AGL
Weather: BR  (mist)
Text: TEMPO 2306/2310 1/2SM FG VV003 AMD LTD TO CLD VIS AND WIND
Forecast period: 0600 to 1000 UTC 23 February 2020
Forecast type: TEMPORARY: The following changes expected for less than half the time period
Visibility: 0.50 miles (0.80 km)
Ceiling: indefinite ceiling with vertical visibility of 300 feet AGL
Clouds: obscured sky
Weather: FG  (fog)